Time;durP1;ratioP1;P1;durP2;ratioP2;P2;SDS_P1;SDS_P2;PMS_P1;PMS_P2;Temp;Humidity;BMP_temperature;BMP_pressure;BME280_temperature;BME280_humidity;BME280_pressure;Samples;Min_cycle;Max_cycle;Signal;HPM_P1;HPM_P2
2021/01/19 00:05:37;;;;;;;374.63;134.47;;;;;;;-6.59;75.38;99213.91;4324564;81;21644;-86
2021/01/19 00:11:38;;;;;;;383.83;140.87;;;;;;;-6.52;75.50;99201.98;4339113;80;21171;-86
2021/01/19 00:17:40;;;;;;;376.30;136.40;;;;;;;-6.57;75.25;99194.48;4263981;82;22515;-87
2021/01/19 00:23:42;;;;;;;314.43;126.67;;;;;;;-6.71;75.35;99195.50;4261923;82;21574;-86
2021/01/19 00:29:44;;;;;;;324.33;121.07;;;;;;;-6.85;75.89;99199.67;4260118;82;21213;-86
2021/01/19 00:35:46;;;;;;;325.13;121.37;;;;;;;-6.77;76.42;99188.55;4264464;81;21187;-86
2021/01/19 00:41:47;;;;;;;335.33;126.67;;;;;;;-6.61;76.38;99182.21;4272262;81;21230;-86
2021/01/19 00:47:49;;;;;;;314.20;122.40;;;;;;;-6.50;76.57;99171.09;4214323;83;21198;-86
2021/01/19 00:53:51;;;;;;;324.63;121.70;;;;;;;-6.52;76.37;99178.02;4291909;82;21210;-86
2021/01/19 00:59:53;;;;;;;299.47;117.20;;;;;;;-6.57;76.44;99173.19;4282792;82;21621;-87
2021/01/19 01:05:58;;;;;;;340.53;139.00;;;;;;;-6.54;76.73;99164.16;4293979;82;21240;-86
2021/01/19 01:11:59;;;;;;;319.13;120.67;;;;;;;-6.52;76.87;99159.89;4274216;82;21178;-86
2021/01/19 01:18:01;;;;;;;305.97;115.33;;;;;;;-6.41;76.97;99159.39;4285747;82;21169;-87
2021/01/19 01:24:08;;;;;;;309.10;121.30;;;;;;;-6.40;77.09;99153.02;4269341;82;21197;-86
2021/01/19 01:30:13;;;;;;;282.50;116.47;;;;;;;-6.39;77.08;99147.44;4290793;82;21125;-86
2021/01/19 01:36:15;;;;;;;310.50;115.03;;;;;;;-6.27;77.11;99137.86;4267040;82;21347;-87
2021/01/19 01:42:21;;;;;;;323.60;121.13;;;;;;;-6.33;76.91;99138.39;4277145;81;21651;-86
2021/01/19 01:48:21;;;;;;;319.73;120.87;;;;;;;-6.27;77.09;99125.88;4271820;81;21153;-87
2021/01/19 01:54:23;;;;;;;332.70;124.20;;;;;;;-6.29;77.33;99120.00;4274869;81;21178;-86
2021/01/19 02:00:24;;;;;;;323.13;126.20;;;;;;;-6.16;77.56;99106.18;4278893;81;21190;-86
2021/01/19 02:06:27;;;;;;;311.83;124.57;;;;;;;-6.05;77.59;99097.14;4283950;81;21183;-87
2021/01/19 02:12:33;;;;;;;323.57;126.90;;;;;;;-6.16;77.29;99092.86;4319109;80;21208;-87
2021/01/19 02:19:13;;;;;;;335.60;128.27;;;;;;;-6.23;77.56;99099.77;4312118;80;21319;-86
2021/01/19 02:26:01;;;;;;;350.73;133.53;;;;;;;-6.19;77.95;99088.87;4190558;84;21152;-86
2021/01/19 02:32:48;;;;;;;361.20;136.40;;;;;;;-5.99;78.25;99090.73;4278371;81;21147;-86
2021/01/19 02:38:58;;;;;;;;;;;;;;;-5.78;78.17;99081.67;4253541;82;21202;-86
2021/01/19 02:45:05;;;;;;;336.43;133.60;;;;;;;-5.64;78.44;99068.87;4275407;81;20456;-86
2021/01/19 02:51:06;;;;;;;345.23;135.17;;;;;;;-5.58;78.29;99066.98;4275069;81;21152;-85
2021/01/19 02:57:32;;;;;;;344.83;134.17;;;;;;;-5.58;78.09;99062.45;4278870;81;21201;-86
2021/01/19 03:03:39;;;;;;;358.53;137.17;;;;;;;-5.49;78.58;99060.03;4275751;81;21191;-85
2021/01/19 03:09:43;;;;;;;344.73;133.57;;;;;;;-5.46;78.37;99056.30;4283358;81;21617;-85
2021/01/19 03:15:45;;;;;;;346.40;137.13;;;;;;;-5.39;78.59;99049.34;4280417;81;21166;-86
2021/01/19 03:21:46;;;;;;;351.77;134.67;;;;;;;-5.27;78.57;99041.31;4276706;81;21213;-86
2021/01/19 03:27:48;;;;;;;336.23;134.10;;;;;;;-5.14;78.46;99045.28;4277351;81;21498;-85
2021/01/19 03:33:49;;;;;;;350.87;135.20;;;;;;;-5.21;78.39;99038.89;4282238;81;21206;-85
2021/01/19 03:39:51;;;;;;;347.73;130.00;;;;;;;-5.15;78.65;99032.98;4270754;81;21202;-86
2021/01/19 03:45:52;;;;;;;339.87;133.30;;;;;;;-5.21;78.27;99032.74;4249496;82;21225;-85
2021/01/19 03:51:54;;;;;;;330.07;134.20;;;;;;;-5.22;78.61;99034.63;4263630;82;21511;-86
2021/01/19 03:57:57;;;;;;;360.80;134.23;;;;;;;-5.18;78.70;99023.66;4267670;82;21169;-86
2021/01/19 04:03:59;;;;;;;336.67;132.67;;;;;;;-5.10;78.82;99024.44;4277132;82;21188;-86
2021/01/19 04:10:00;;;;;;;332.20;131.63;;;;;;;-5.14;78.88;99019.92;4250815;82;21178;-85
2021/01/19 04:16:03;;;;;;;331.83;129.23;;;;;;;-5.08;79.06;99020.16;4271877;80;21230;-86
2021/01/19 04:22:05;;;;;;;326.50;127.73;;;;;;;-5.00;79.08;99016.41;4278401;81;21341;-85
2021/01/19 04:28:07;;;;;;;338.70;124.07;;;;;;;-5.04;79.04;99017.20;4282042;81;21151;-86
2021/01/19 04:34:08;;;;;;;335.40;130.87;;;;;;;-5.16;79.09;99016.72;4283029;81;21168;-85
2021/01/19 04:40:11;;;;;;;329.67;123.57;;;;;;;-5.21;79.57;99010.87;4247708;82;21320;-85
2021/01/19 04:46:13;;;;;;;326.20;126.77;;;;;;;-5.17;79.72;99011.91;4271567;81;21228;-85
2021/01/19 04:52:18;;;;;;;326.90;127.17;;;;;;;-5.25;79.82;99014.36;4282456;81;21194;-85
2021/01/19 04:58:23;;;;;;;320.67;132.83;;;;;;;-5.29;80.12;99016.77;4249825;82;21184;-86
2021/01/19 05:11:01;;;;;;;330.80;129.90;;;;;;;-4.93;80.63;99014.75;4444325;79;22924;-86
2021/01/19 05:17:04;;;;;;;263.60;105.97;;;;;;;-4.84;80.45;99008.56;4377989;80;21173;-86
2021/01/19 05:23:06;;;;;;;310.00;125.23;;;;;;;-4.72;80.55;99014.12;4386817;80;21592;-86
2021/01/19 05:29:08;;;;;;;341.60;134.63;;;;;;;-4.64;80.49;99024.22;4381168;80;21181;-86
2021/01/19 05:35:17;;;;;;;318.77;132.53;;;;;;;-4.71;80.75;99021.08;4381008;80;21219;-86
2021/01/19 05:41:52;;;;;;;362.47;143.43;;;;;;;-4.64;81.12;99018.87;4384248;79;21154;-86
2021/01/19 05:47:55;;;;;;;266.85;111.05;;;;;;;-4.47;81.14;99019.31;4386897;80;21689;-86
2021/01/19 05:53:59;;;;;;;335.93;136.83;;;;;;;-4.37;81.08;99015.25;4392555;80;21182;-86
2021/01/19 06:00:05;;;;;;;318.20;133.20;;;;;;;-4.36;81.10;99012.83;4392657;80;21264;-86
2021/01/19 06:06:17;;;;;;;334.37;130.53;;;;;;;-4.38;80.93;99014.97;4381179;80;21206;-86
2021/01/19 06:12:21;;;;;;;318.23;140.00;;;;;;;-4.40;81.10;99017.14;4382317;80;21143;-86
2021/01/19 06:18:22;;;;;;;320.93;130.13;;;;;;;-4.38;81.58;99013.11;4389457;80;21209;-87
2021/01/19 06:24:43;;;;;;;153.23;62.97;;;;;;;-4.31;81.72;99012.27;4399698;80;21162;-86
2021/01/19 06:30:45;;;;;;;138.23;58.73;;;;;;;-4.10;82.50;99002.23;4400212;80;21690;-87
2021/01/19 06:36:46;;;;;;;61.60;28.23;;;;;;;-3.90;83.18;99004.17;4398011;79;21174;-86
2021/01/19 06:43:02;;;;;;;46.33;20.90;;;;;;;-3.59;83.59;99004.70;4392144;80;21762;-86
2021/01/19 06:49:06;;;;;;;44.73;20.00;;;;;;;-3.29;84.10;99003.05;4392643;80;21154;-87
2021/01/19 06:55:22;;;;;;;49.67;21.33;;;;;;;-3.05;84.40;99003.83;4388940;79;21170;-87
2021/01/19 07:01:26;;;;;;;45.67;21.23;;;;;;;-2.88;84.52;99006.83;4401478;80;21629;-87
2021/01/19 07:07:43;;;;;;;41.93;17.97;;;;;;;-2.72;84.39;99010.91;4385981;80;21138;-87
2021/01/19 07:13:48;;;;;;;42.27;18.23;;;;;;;-2.56;84.05;99015.52;4379544;80;21177;-87
2021/01/19 07:19:50;;;;;;;30.30;14.27;;;;;;;-2.41;84.29;99013.42;4385033;80;21185;-86
2021/01/19 07:25:52;;;;;;;43.30;18.77;;;;;;;-2.26;85.10;99016.44;4383617;79;21189;-87
2021/01/19 07:31:53;;;;;;;38.67;18.40;;;;;;;-2.19;84.73;99023.55;4384134;80;21162;-87
2021/01/19 07:37:58;;;;;;;41.77;18.03;;;;;;;-2.03;84.98;99021.70;4391043;79;21195;-87
2021/01/19 07:44:01;;;;;;;48.27;22.67;;;;;;;-1.90;85.23;99019.63;4382393;80;21515;-87
2021/01/19 07:50:13;;;;;;;42.30;20.33;;;;;;;-1.80;85.77;99017.30;4377810;80;21193;-87
2021/01/19 07:56:29;;;;;;;39.23;20.30;;;;;;;-1.71;85.52;99015.55;4390160;80;22078;-86
2021/01/19 08:02:31;;;;;;;42.15;19.57;;;;;;;-1.54;86.60;99012.30;4380520;80;21185;-87
2021/01/19 08:08:39;;;;;;;44.50;20.27;;;;;;;-1.37;87.13;99010.64;4363825;80;21230;-88
2021/01/19 08:14:44;;;;;;;43.53;19.47;;;;;;;-1.27;86.69;99015.03;4358428;81;21159;-87
2021/01/19 08:20:47;;;;;;;48.70;22.37;;;;;;;-1.16;87.22;99001.66;4347606;80;21277;-87
2021/01/19 08:26:50;;;;;;;41.57;20.73;;;;;;;-1.07;87.04;98999.86;4346603;80;21165;-87
2021/01/19 08:32:54;;;;;;;38.20;19.00;;;;;;;-0.97;87.66;98999.10;4351402;80;21148;-87
2021/01/19 08:38:59;;;;;;;35.17;17.27;;;;;;;-0.85;88.11;98999.95;4345186;80;21155;-88
2021/01/19 08:45:01;;;;;;;33.33;17.57;;;;;;;-0.78;88.03;99002.48;4350428;80;21396;-87
2021/01/19 08:51:03;;;;;;;31.23;16.50;;;;;;;-0.65;87.59;99002.21;4345433;81;21596;-88
2021/01/19 08:57:05;;;;;;;39.97;19.30;;;;;;;-0.51;87.82;99002.44;4354762;80;21610;-86
2021/01/19 09:03:16;;;;;;;34.30;16.83;;;;;;;-0.39;87.63;99006.73;4346253;81;21181;-87
2021/01/19 09:09:23;;;;;;;32.40;16.63;;;;;;;-0.21;87.76;99011.17;4380047;80;21146;-88
2021/01/19 09:15:24;;;;;;;;;;;;;;;0.05;88.35;99009.23;4388641;80;21591;-88
2021/01/19 09:21:26;;;;;;;41.40;22.30;;;;;;;0.19;87.74;99007.27;4397081;80;20161;-88
2021/01/19 09:27:28;;;;;;;39.57;21.27;;;;;;;0.18;87.62;99010.51;4393197;80;21169;-87
2021/01/19 09:33:33;;;;;;;38.17;18.45;;;;;;;0.19;87.62;99021.51;4390825;79;21158;-89
2021/01/19 09:39:34;;;;;;;42.00;20.57;;;;;;;0.31;87.74;99022.31;4389629;79;21122;-88
2021/01/19 09:45:36;;;;;;;40.20;18.42;;;;;;;0.43;87.75;99023.34;4400302;79;21189;-87
2021/01/19 09:51:38;;;;;;;39.45;18.50;;;;;;;0.45;88.03;99018.99;4395655;80;21166;-87
2021/01/19 09:57:39;;;;;;;47.80;19.90;;;;;;;0.46;87.98;99007.11;4391453;80;21180;-86
2021/01/19 10:03:41;;;;;;;39.53;19.35;;;;;;;0.48;88.73;99005.72;4391603;79;21185;-87
2021/01/19 10:09:44;;;;;;;39.23;18.93;;;;;;;0.40;88.37;98995.69;4397153;80;21300;-88
2021/01/19 10:15:47;;;;;;;32.60;16.52;;;;;;;0.34;88.42;98990.73;4394499;80;21153;-87
2021/01/19 10:21:52;;;;;;;32.70;16.65;;;;;;;0.33;88.60;98986.45;4397832;80;21141;-87
2021/01/19 10:28:00;;;;;;;36.97;16.97;;;;;;;0.33;88.93;98987.80;4389724;80;21820;-87
2021/01/19 10:34:06;;;;;;;36.63;17.95;;;;;;;0.35;89.80;98981.00;4389284;80;21609;-88
2021/01/19 10:40:12;;;;;;;49.83;22.40;;;;;;;0.44;89.15;98969.71;4384092;80;21179;-89
2021/01/19 10:46:23;;;;;;;;;;;;;;;0.55;89.44;98949.48;4390821;80;21121;-88
2021/01/19 10:52:24;;;;;;;35.38;17.90;;;;;;;0.81;89.41;98930.73;4392218;80;20183;-87
2021/01/19 10:58:26;;;;;;;31.80;16.10;;;;;;;0.81;89.41;98930.73;4397508;80;21587;-88
2021/01/19 11:04:27;;;;;;;28.23;15.08;;;;;;;0.91;89.39;98937.20;4391571;80;21152;-88
2021/01/19 11:10:31;;;;;;;28.55;13.13;;;;;;;0.83;89.39;98905.05;4387729;80;21149;-88
2021/01/19 11:16:40;;;;;;;24.05;12.20;;;;;;;0.99;89.87;98925.07;4384847;80;21127;-88
2021/01/19 11:22:47;;;;;;;28.98;13.00;;;;;;;1.01;89.23;98891.06;4384523;80;21207;-89
2021/01/19 11:28:49;;;;;;;24.60;13.60;;;;;;;1.01;89.23;98891.06;4383718;80;21121;-90
2021/01/19 11:34:50;;;;;;;23.70;13.70;;;;;;;1.15;89.36;98891.17;4398840;80;21613;-89
2021/01/19 11:40:57;;;;;;;23.83;12.85;;;;;;;1.22;89.04;98894.17;4391848;79;21632;-89
2021/01/19 11:46:59;;;;;;;25.30;12.98;;;;;;;1.30;88.93;98888.57;4385158;80;21162;-88
2021/01/19 11:53:01;;;;;;;23.60;12.63;;;;;;;1.28;88.93;98882.15;4379089;80;21174;-89
2021/01/19 11:59:07;;;;;;;26.87;13.40;;;;;;;1.37;88.83;98864.61;4388873;80;21622;-88
2021/01/19 12:05:10;;;;;;;28.98;14.23;;;;;;;1.34;88.65;98849.06;4376194;80;21221;-89
2021/01/19 12:11:12;;;;;;;27.77;13.88;;;;;;;1.33;88.56;98832.65;4385384;80;21670;-89
2021/01/19 12:17:48;;;;;;;32.90;16.62;;;;;;;1.39;88.62;98836.19;4377867;80;21671;-89
2021/01/19 12:23:50;;;;;;;40.43;19.23;;;;;;;1.55;88.33;98822.45;4333833;80;21620;-89
2021/01/19 12:29:52;;;;;;;34.90;17.62;;;;;;;1.55;88.33;98822.45;4347565;80;21178;-90
2021/01/19 12:35:54;;;;;;;36.83;17.87;;;;;;;1.75;88.27;98830.99;4346770;80;21202;-90
2021/01/19 12:41:56;;;;;;;46.37;20.30;;;;;;;1.77;88.26;98825.50;4342038;80;21162;-89
2021/01/19 12:47:57;;;;;;;48.85;20.92;;;;;;;1.75;88.19;98804.81;4340438;80;21179;-89
2021/01/19 12:54:01;;;;;;;43.68;19.02;;;;;;;1.93;87.83;98806.33;4342617;80;21203;-89
2021/01/19 13:00:06;;;;;;;43.15;19.37;;;;;;;1.98;87.80;98802.11;4340052;80;21206;-88
2021/01/19 13:06:09;;;;;;;36.50;17.42;;;;;;;2.02;87.55;98791.46;4337878;80;21644;-88
2021/01/19 13:12:11;;;;;;;37.23;17.92;;;;;;;2.09;87.37;98791.19;4297584;81;21189;-89
2021/01/19 13:18:12;;;;;;;38.30;17.85;;;;;;;2.08;87.14;98786.91;4300636;82;21173;-88
2021/01/19 13:24:14;;;;;;;35.25;18.80;;;;;;;1.99;86.91;98791.53;4303049;81;21140;-88
2021/01/19 13:30:17;;;;;;;37.03;17.67;;;;;;;1.91;86.89;98791.58;4292118;81;21176;-88
2021/01/19 13:36:19;;;;;;;34.27;16.95;;;;;;;1.84;86.66;98785.33;4303514;81;21150;-89
2021/01/19 13:42:21;;;;;;;25.95;14.03;;;;;;;1.77;86.74;98785.02;4298581;81;21292;-90
2021/01/19 13:48:23;;;;;;;26.25;13.83;;;;;;;1.61;86.49;98775.30;4308846;80;21729;-88
2021/01/19 13:54:24;;;;;;;32.78;15.30;;;;;;;1.54;86.65;98778.27;4300806;81;21221;-89
2021/01/19 14:00:26;;;;;;;24.77;13.08;;;;;;;1.39;86.64;98754.50;4299494;81;21201;-88
2021/01/19 14:06:28;;;;;;;29.15;14.20;;;;;;;1.45;86.51;98762.11;4301829;81;21186;-89
2021/01/19 14:12:30;;;;;;;28.95;14.15;;;;;;;1.32;86.43;98759.03;4299094;81;21194;-88
2021/01/19 14:18:32;;;;;;;35.95;17.95;;;;;;;1.27;86.44;98750.30;4290217;81;21665;-90
2021/01/19 14:24:33;;;;;;;30.30;15.70;;;;;;;1.30;86.38;98747.00;4291565;81;21207;-89
2021/01/19 14:30:35;;;;;;;27.82;13.50;;;;;;;1.26;86.35;98740.09;4300540;81;21201;-89
2021/01/19 14:36:37;;;;;;;28.52;14.58;;;;;;;1.27;86.28;98738.97;4297585;81;21317;-88
2021/01/19 14:42:38;;;;;;;65.65;25.12;;;;;;;1.23;86.22;98734.54;4300294;81;21653;-90
2021/01/19 14:48:40;;;;;;;31.35;15.45;;;;;;;1.22;86.13;98724.88;4297503;81;21178;-87
2021/01/19 14:54:50;;;;;;;29.50;13.35;;;;;;;1.15;85.97;98717.27;4298130;81;21159;-88
2021/01/19 15:00:51;;;;;;;27.02;13.75;;;;;;;1.15;85.97;98717.27;4299489;81;21199;-87
2021/01/19 15:06:58;;;;;;;267.05;85.80;;;;;;;1.06;85.97;98701.67;4286632;81;22371;-86
2021/01/19 15:13:02;;;;;;;210.17;72.42;;;;;;;1.08;85.74;98700.01;4283703;81;21198;-87
2021/01/19 15:19:04;;;;;;;48.48;21.17;;;;;;;0.96;85.64;98695.25;4294676;81;21173;-85
2021/01/19 15:25:06;;;;;;;85.92;32.00;;;;;;;0.83;85.53;98687.36;4298499;81;21179;-85
2021/01/19 15:31:11;;;;;;;92.37;35.75;;;;;;;0.83;85.53;98687.36;4288760;81;21156;-86
2021/01/19 15:37:12;;;;;;;49.27;23.75;;;;;;;0.60;85.69;98663.02;4285182;81;21226;-86
2021/01/19 15:43:14;;;;;;;53.28;24.32;;;;;;;0.70;85.86;98681.57;4288738;82;21672;-90
2021/01/19 15:49:16;;;;;;;58.73;30.60;;;;;;;0.70;85.86;98681.57;4285655;81;21192;-87
2021/01/19 15:55:18;;;;;;;87.85;40.25;;;;;;;0.63;85.71;98671.81;4260606;81;21317;-90
2021/01/19 16:01:19;;;;;;;50.75;28.47;;;;;;;0.53;85.64;98667.56;4276925;81;21548;-88
2021/01/19 16:07:21;;;;;;;52.55;26.00;;;;;;;0.37;85.71;98652.18;4281007;81;21420;-89
2021/01/19 16:13:22;;;;;;;97.17;41.63;;;;;;;0.21;85.93;98644.32;4327961;81;21126;-90
2021/01/19 16:19:24;;;;;;;84.87;40.67;;;;;;;0.13;85.96;98641.06;4319838;81;21151;-89
2021/01/19 16:25:26;;;;;;;94.20;48.68;;;;;;;-0.07;85.88;98636.55;4220377;82;21325;-89
2021/01/19 16:31:33;;;;;;;179.77;66.53;;;;;;;-0.27;85.94;98611.56;4213910;82;21583;-88
2021/01/19 16:37:34;;;;;;;85.72;39.38;;;;;;;-0.26;86.45;98604.30;4214114;83;21881;-91
2021/01/19 16:43:36;;;;;;;70.67;32.60;;;;;;;-0.21;86.39;98591.50;4220657;83;21683;-90
2021/01/19 16:49:38;;;;;;;68.90;31.43;;;;;;;-0.15;86.53;98576.79;4216347;84;21347;-90
2021/01/19 16:55:39;;;;;;;74.87;34.33;;;;;;;-0.01;86.59;98561.83;4208926;83;21182;-89
2021/01/19 17:01:41;;;;;;;81.67;37.40;;;;;;;0.17;86.48;98547.28;4205661;83;21239;-89
2021/01/19 17:07:42;;;;;;;81.28;37.10;;;;;;;0.32;86.36;98539.25;4210463;83;21225;-90
2021/01/19 17:13:44;;;;;;;51.77;27.27;;;;;;;0.40;86.23;98521.75;4185573;83;21715;-89
2021/01/19 17:19:45;;;;;;;60.05;29.15;;;;;;;0.39;85.88;98499.19;4196934;84;21163;-89
2021/01/19 17:25:47;;;;;;;66.42;32.88;;;;;;;0.24;85.90;98501.02;4195700;83;21675;-90
2021/01/19 17:31:50;;;;;;;72.67;34.43;;;;;;;0.18;86.25;98490.98;4256688;82;21155;-89
2021/01/19 17:37:52;;;;;;;116.82;61.08;;;;;;;0.20;86.37;98486.63;4245437;82;21331;-89
2021/01/19 17:43:53;;;;;;;99.67;47.97;;;;;;;0.13;86.26;98480.92;4346811;80;21156;-89
2021/01/19 17:49:55;;;;;;;126.05;60.88;;;;;;;0.16;86.19;98474.35;4348099;81;21301;-90
2021/01/19 17:55:56;;;;;;;122.17;61.07;;;;;;;0.14;86.28;98471.76;4340472;80;21199;-88
2021/01/19 18:01:59;;;;;;;164.00;77.27;;;;;;;0.10;86.28;98464.87;4342264;81;21128;-88
2021/01/19 18:15:06;;;;;;;166.28;72.40;;;;;;;-0.12;86.57;98452.40;4325324;78;21526;-89
2021/01/19 18:21:10;;;;;;;155.10;67.23;;;;;;;-0.04;86.54;98460.22;4339746;81;21254;-89
2021/01/19 18:27:12;;;;;;;211.97;83.60;;;;;;;-0.12;86.38;98462.36;4333123;80;21210;-90
2021/01/19 18:33:14;;;;;;;139.95;62.45;;;;;;;-0.15;86.83;98450.34;4337141;80;21156;-90
2021/01/19 18:39:15;;;;;;;139.60;62.43;;;;;;;-0.17;86.57;98455.25;4339475;81;21150;-86
2021/01/19 18:45:17;;;;;;;134.20;61.23;;;;;;;-0.22;86.77;98456.75;4336119;80;22057;-86
2021/01/19 18:51:22;;;;;;;120.97;56.40;;;;;;;-0.20;86.76;98453.19;4330619;80;21143;-88
2021/01/19 18:57:23;;;;;;;117.03;45.53;;;;;;;-0.20;86.82;98449.16;4337417;81;21178;-87
2021/01/19 19:03:25;;;;;;;66.13;28.30;;;;;;;-0.13;86.91;98455.41;4342152;81;21621;-91
2021/01/19 19:09:26;;;;;;;52.97;23.80;;;;;;;0.10;86.79;98460.83;4338903;81;21170;-90
2021/01/19 19:15:28;;;;;;;63.97;26.20;;;;;;;0.22;86.60;98466.91;4325382;80;21188;-91
2021/01/19 19:21:33;;;;;;;61.18;26.77;;;;;;;0.31;86.36;98457.71;4300886;81;21179;-90
2021/01/19 19:27:45;;;;;;;73.25;30.08;;;;;;;0.45;85.98;98443.50;4300060;81;21195;-89
2021/01/19 19:33:47;;;;;;;68.92;27.87;;;;;;;0.47;85.73;98437.78;4298616;81;21187;-89
2021/01/19 19:39:53;;;;;;;56.68;23.67;;;;;;;0.50;85.85;98441.17;4304117;81;21124;-87
2021/01/19 19:45:52;;;;;;;62.90;23.77;;;;;;;0.47;85.66;98438.55;4297547;81;21564;-86
2021/01/19 19:51:54;;;;;;;44.18;20.10;;;;;;;0.46;85.44;98451.00;4302023;81;21386;-87
2021/01/19 19:57:57;;;;;;;56.37;22.20;;;;;;;0.57;85.15;98451.68;4305622;81;21187;-88
2021/01/19 20:03:59;;;;;;;56.20;22.70;;;;;;;0.61;85.24;98443.75;4277000;81;21164;-87
2021/01/19 20:10:01;;;;;;;48.13;20.63;;;;;;;0.55;85.05;98440.43;4272915;81;21123;-88
2021/01/19 20:16:03;;;;;;;50.73;20.20;;;;;;;0.56;85.03;98435.84;4308258;80;21185;-87
2021/01/19 20:22:12;;;;;;;44.73;18.23;;;;;;;0.62;84.91;98431.85;4326070;80;21212;-89
2021/01/19 20:28:15;;;;;;;42.85;18.48;;;;;;;0.64;84.56;98429.64;4317296;81;21122;-88
2021/01/19 20:34:16;;;;;;;50.10;20.13;;;;;;;0.65;84.61;98429.86;4314325;81;21166;-87
2021/01/19 20:40:18;;;;;;;45.20;17.00;;;;;;;0.55;84.73;98422.92;4323463;81;21593;-89
2021/01/19 20:46:22;;;;;;;16.50;7.92;;;;;;;0.48;84.83;98429.93;4302359;80;22735;-90
2021/01/19 20:52:24;;;;;;;18.23;6.92;;;;;;;0.69;84.53;98434.84;4293757;81;22411;-89
2021/01/19 20:58:25;;;;;;;15.08;6.78;;;;;;;0.80;84.48;98435.48;4325911;81;21157;-89
2021/01/19 21:04:27;;;;;;;20.88;6.80;;;;;;;0.85;84.58;98429.13;4318681;81;21600;-88
2021/01/19 21:10:29;;;;;;;16.67;6.58;;;;;;;0.88;84.38;98432.52;4329546;80;21154;-87
2021/01/19 21:16:31;;;;;;;17.37;6.35;;;;;;;0.92;84.24;98431.56;4323382;80;21326;-87
2021/01/19 21:22:38;;;;;;;17.95;6.45;;;;;;;0.90;84.10;98434.33;4322948;80;21154;-88
2021/01/19 21:28:42;;;;;;;18.50;7.45;;;;;;;0.92;84.33;98437.50;4361623;80;21671;-88
2021/01/19 21:34:43;;;;;;;21.75;8.48;;;;;;;0.86;84.36;98428.80;4353937;80;21181;-87
2021/01/19 21:40:45;;;;;;;27.00;10.53;;;;;;;0.85;84.39;98433.16;4354864;80;21155;-88
2021/01/19 21:46:51;;;;;;;30.17;9.80;;;;;;;0.88;84.47;98432.52;4349584;81;21265;-89
2021/01/19 21:52:54;;;;;;;20.10;8.00;;;;;;;0.86;84.62;98434.77;4350371;80;21585;-89
2021/01/19 21:58:56;;;;;;;27.87;10.13;;;;;;;0.86;84.51;98434.19;4364275;80;21211;-90
2021/01/19 22:04:57;;;;;;;32.78;10.15;;;;;;;0.83;84.67;98428.68;4354589;80;21158;-88
2021/01/19 22:10:59;;;;;;;23.55;9.95;;;;;;;0.83;84.67;98428.68;4360209;80;21218;-90
2021/01/19 22:17:03;;;;;;;27.22;9.73;;;;;;;0.77;84.78;98421.88;4313149;80;21160;-90
2021/01/19 22:23:04;;;;;;;27.67;12.75;;;;;;;0.79;84.95;98418.30;4289038;81;21164;-90
2021/01/19 22:29:06;;;;;;;28.42;11.40;;;;;;;0.79;84.95;98402.14;4291145;81;21429;-89
2021/01/19 22:35:08;;;;;;;46.80;17.90;;;;;;;0.84;84.90;98403.30;4286611;81;21347;-89
2021/01/19 22:41:10;;;;;;;27.65;10.65;;;;;;;0.84;84.90;98406.80;4291679;81;21287;-89
2021/01/19 22:47:12;;;;;;;31.77;12.47;;;;;;;0.79;85.02;98415.06;4322729;80;21304;-89
2021/01/19 22:53:13;;;;;;;67.60;23.27;;;;;;;0.82;85.17;98416.30;4297678;81;21214;-90
2021/01/19 22:59:15;;;;;;;78.42;25.82;;;;;;;0.86;85.22;98421.29;4296866;81;21713;-90
2021/01/19 23:05:16;;;;;;;95.90;28.47;;;;;;;0.85;85.25;98424.53;4288472;81;21142;-90
2021/01/19 23:11:18;;;;;;;95.42;27.07;;;;;;;0.90;85.39;98432.44;4291318;82;21772;-90
2021/01/19 23:17:19;;;;;;;78.15;24.30;;;;;;;0.89;85.44;98430.84;4301238;81;21491;-90
2021/01/19 23:23:21;;;;;;;34.27;14.60;;;;;;;0.85;85.40;98433.16;4287162;81;21159;-90
2021/01/19 23:29:22;;;;;;;40.50;17.57;;;;;;;0.79;85.50;98434.47;4301682;81;22080;-89
2021/01/19 23:35:24;;;;;;;34.73;16.07;;;;;;;0.70;85.63;98429.14;4303473;81;21381;-90
2021/01/19 23:41:26;;;;;;;39.15;18.82;;;;;;;0.63;85.54;98428.84;4299807;81;21679;-90
2021/01/19 23:47:27;;;;;;;46.08;21.23;;;;;;;0.55;85.79;98414.84;4301291;81;21122;-91
2021/01/19 23:53:29;;;;;;;43.23;19.92;;;;;;;0.58;86.38;98413.42;4300498;81;21152;-90
2021/01/19 23:59:30;;;;;;;47.70;21.82;;;;;;;0.56;86.27;98425.88;4297608;81;21171;-88
